Twin Oaks, North Carolina
Current Conditions -  °F | °C
As of 9:15 PM on Friday 24 Oct 2014 (Local Time) from KGEV Reporting Station
Clear Clear  
Wind Chill: 52°   Ceiling: Unl
Heat Index: 52°   Visibility: 10mi
Dew Point: 31°   Wind: 6mph
Humidity: 44%   Direction: 300°WNW
Pressure: 30.07"   Gusts: NA
Location:  36.5212°N, 81.1574°W
Report Text: KGEV 250115Z AUTO 30005KT 10SM CLR 11/M01 A3007 RMK AO2 T01111007
Loading
Personal Weather Stations






























Interactive Weather Map
Tropical Storm Tracking
New forecast layout! Learn more

10-Day Weather Forecast

Advertisements
Track Severe Weather on mobile